sensor_id;sensor_type;location;lat;lon;timestamp;temperature;humidity
51837;DHT22;38941;53.254;6.600;2023-05-07T00:34:09;12.50;99.90
51837;DHT22;38941;53.254;6.600;2023-05-07T00:36:10;11.70;99.90
51837;DHT22;38941;53.254;6.600;2023-05-07T00:38:11;11.60;99.90
51837;DHT22;38941;53.254;6.600;2023-05-07T00:40:11;11.60;99.90
51837;DHT22;38941;53.254;6.600;2023-05-07T00:42:12;11.60;99.90
51837;DHT22;38941;53.254;6.600;2023-05-07T00:44:14;11.60;99.90
51837;DHT22;38941;53.254;6.600;2023-05-07T00:46:15;11.50;99.90
51837;DHT22;38941;53.254;6.600;2023-05-07T00:48:16;11.60;99.90
51837;DHT22;38941;53.254;6.600;2023-05-07T00:50:17;11.60;99.90
51837;DHT22;38941;53.254;6.600;2023-05-07T00:52:20;11.50;99.90
51837;DHT22;38941;53.254;6.600;2023-05-07T00:54:21;11.50;99.90
51837;DHT22;38941;53.254;6.600;2023-05-07T00:56:23;11.50;99.90
51837;DHT22;38941;53.254;6.600;2023-05-07T00:58:25;11.50;99.90
51837;DHT22;38941;53.254;6.600;2023-05-07T01:00:26;11.50;99.90
51837;DHT22;38941;53.254;6.600;2023-05-07T01:02:27;11.50;99.90
51837;DHT22;38941;53.254;6.600;2023-05-07T01:04:28;11.40;99.90
51837;DHT22;38941;53.254;6.600;2023-05-07T01:06:29;11.40;99.90
51837;DHT22;38941;53.254;6.600;2023-05-07T01:08:32;11.40;99.90
51837;DHT22;38941;53.254;6.600;2023-05-07T01:10:33;11.40;99.90
51837;DHT22;38941;53.254;6.600;2023-05-07T01:12:35;11.40;99.90
51837;DHT22;38941;53.254;6.600;2023-05-07T01:14:36;11.40;99.90
51837;DHT22;38941;53.254;6.600;2023-05-07T01:16:37;11.40;99.90
51837;DHT22;38941;53.254;6.600;2023-05-07T01:18:38;11.40;99.90
51837;DHT22;38941;53.254;6.600;2023-05-07T01:20:39;11.30;99.90
51837;DHT22;38941;53.254;6.600;2023-05-07T01:22:40;11.40;99.90
51837;DHT22;38941;53.254;6.600;2023-05-07T01:24:41;11.40;99.90
51837;DHT22;38941;53.254;6.600;2023-05-07T01:26:43;11.40;99.90
51837;DHT22;38941;53.254;6.600;2023-05-07T01:28:45;11.40;99.90
51837;DHT22;38941;53.254;6.600;2023-05-07T01:30:58;11.40;99.90
51837;DHT22;38941;53.254;6.600;2023-05-07T01:33:06;11.40;99.90
51837;DHT22;38941;53.254;6.600;2023-05-07T01:35:11;11.40;99.90
51837;DHT22;38941;53.254;6.600;2023-05-07T01:37:13;11.40;99.90
51837;DHT22;38941;53.254;6.600;2023-05-07T01:39:15;11.40;99.90
51837;DHT22;38941;53.254;6.600;2023-05-07T01:41:16;11.30;99.90
51837;DHT22;38941;53.254;6.600;2023-05-07T01:43:17;11.30;99.90
51837;DHT22;38941;53.254;6.600;2023-05-07T01:45:18;11.30;99.90
51837;DHT22;38941;53.254;6.600;2023-05-07T01:47:19;11.40;99.90
51837;DHT22;38941;53.254;6.600;2023-05-07T01:49:21;11.30;99.90
51837;DHT22;38941;53.254;6.600;2023-05-07T01:51:22;11.40;99.90
51837;DHT22;38941;53.254;6.600;2023-05-07T01:53:23;11.40;99.90
51837;DHT22;38941;53.254;6.600;2023-05-07T01:55:24;11.30;99.90
51837;DHT22;38941;53.254;6.600;2023-05-07T01:57:24;11.30;99.90
51837;DHT22;38941;53.254;6.600;2023-05-07T01:59:26;11.30;99.90
51837;DHT22;38941;53.254;6.600;2023-05-07T02:01:26;11.40;99.90
51837;DHT22;38941;53.254;6.600;2023-05-07T02:03:27;11.30;99.90
51837;DHT22;38941;53.254;6.600;2023-05-07T02:05:28;11.40;99.90
51837;DHT22;38941;53.254;6.600;2023-05-07T02:07:29;11.30;99.90
51837;DHT22;38941;53.254;6.600;2023-05-07T02:09:29;11.30;99.90
51837;DHT22;38941;53.254;6.600;2023-05-07T02:11:31;11.40;99.90
51837;DHT22;38941;53.254;6.600;2023-05-07T02:13:33;11.40;99.90
51837;DHT22;38941;53.254;6.600;2023-05-07T02:15:37;11.40;99.90
51837;DHT22;38941;53.254;6.600;2023-05-07T02:18:07;11.40;99.90
51837;DHT22;38941;53.254;6.600;2023-05-07T02:20:09;11.40;99.90
51837;DHT22;38941;53.254;6.600;2023-05-07T02:22:14;11.30;99.90
51837;DHT22;38941;53.254;6.600;2023-05-07T02:24:15;11.30;99.90
51837;DHT22;38941;53.254;6.600;2023-05-07T02:26:16;11.30;99.90
51837;DHT22;38941;53.254;6.600;2023-05-07T02:28:17;11.30;99.90
51837;DHT22;38941;53.254;6.600;2023-05-07T02:30:19;11.30;99.90
51837;DHT22;38941;53.254;6.600;2023-05-07T02:32:22;11.30;99.90
51837;DHT22;38941;53.254;6.600;2023-05-07T02:34:23;11.30;99.90
51837;DHT22;38941;53.254;6.600;2023-05-07T02:36:24;11.30;99.90
51837;DHT22;38941;53.254;6.600;2023-05-07T02:38:25;11.30;99.90
51837;DHT22;38941;53.254;6.600;2023-05-07T02:40:27;11.20;99.90
51837;DHT22;38941;53.254;6.600;2023-05-07T02:42:29;11.20;99.90
51837;DHT22;38941;53.254;6.600;2023-05-07T02:44:30;11.20;99.90
51837;DHT22;38941;53.254;6.600;2023-05-07T02:46:32;11.20;99.90
51837;DHT22;38941;53.254;6.600;2023-05-07T02:48:34;11.20;99.90
51837;DHT22;38941;53.254;6.600;2023-05-07T02:50:35;11.20;99.90
51837;DHT22;38941;53.254;6.600;2023-05-07T02:52:35;11.20;99.90
51837;DHT22;38941;53.254;6.600;2023-05-07T02:54:36;11.10;99.90
51837;DHT22;38941;53.254;6.600;2023-05-07T02:56:41;11.10;99.90
51837;DHT22;38941;53.254;6.600;2023-05-07T02:58:42;11.10;99.90
51837;DHT22;38941;53.254;6.600;2023-05-07T03:00:42;11.10;99.90
51837;DHT22;38941;53.254;6.600;2023-05-07T03:02:44;11.10;99.90
51837;DHT22;38941;53.254;6.600;2023-05-07T03:04:45;11.10;99.90
51837;DHT22;38941;53.254;6.600;2023-05-07T03:06:47;11.10;99.90
51837;DHT22;38941;53.254;6.600;2023-05-07T03:08:48;11.10;99.90
51837;DHT22;38941;53.254;6.600;2023-05-07T03:10:49;11.10;99.90
51837;DHT22;38941;53.254;6.600;2023-05-07T03:12:50;11.00;99.90
51837;DHT22;38941;53.254;6.600;2023-05-07T03:14:56;11.10;99.90
51837;DHT22;38941;53.254;6.600;2023-05-07T03:16:57;11.00;99.90
51837;DHT22;38941;53.254;6.600;2023-05-07T03:18:57;10.90;99.90
51837;DHT22;38941;53.254;6.600;2023-05-07T03:20:59;11.00;99.90
51837;DHT22;38941;53.254;6.600;2023-05-07T03:23:00;10.90;99.90
51837;DHT22;38941;53.254;6.600;2023-05-07T03:25:01;11.00;99.90
51837;DHT22;38941;53.254;6.600;2023-05-07T03:27:01;10.90;99.90
51837;DHT22;38941;53.254;6.600;2023-05-07T03:29:03;10.90;99.90
51837;DHT22;38941;53.254;6.600;2023-05-07T03:31:04;10.90;99.90
51837;DHT22;38941;53.254;6.600;2023-05-07T03:33:05;10.90;99.90
51837;DHT22;38941;53.254;6.600;2023-05-07T03:35:06;10.90;99.90
51837;DHT22;38941;53.254;6.600;2023-05-07T03:37:07;10.90;99.90
51837;DHT22;38941;53.254;6.600;2023-05-07T03:39:08;10.80;99.90
51837;DHT22;38941;53.254;6.600;2023-05-07T03:41:09;10.90;99.90
51837;DHT22;38941;53.254;6.600;2023-05-07T03:43:15;10.80;99.90
51837;DHT22;38941;53.254;6.600;2023-05-07T03:45:17;10.80;99.90
51837;DHT22;38941;53.254;6.600;2023-05-07T03:47:18;10.80;99.90
51837;DHT22;38941;53.254;6.600;2023-05-07T03:49:19;10.80;99.90
51837;DHT22;38941;53.254;6.600;2023-05-07T03:51:19;10.80;99.90
51837;DHT22;38941;53.254;6.600;2023-05-07T03:55:21;10.80;99.90
51837;DHT22;38941;53.254;6.600;2023-05-07T03:57:24;10.80;99.90
51837;DHT22;38941;53.254;6.600;2023-05-07T03:59:25;10.80;99.90
51837;DHT22;38941;53.254;6.600;2023-05-07T04:01:26;10.70;99.90
51837;DHT22;38941;53.254;6.600;2023-05-07T04:03:27;10.70;99.90
51837;DHT22;38941;53.254;6.600;2023-05-07T04:05:27;10.80;99.90
51837;DHT22;38941;53.254;6.600;2023-05-07T04:07:28;10.80;99.90
51837;DHT22;38941;53.254;6.600;2023-05-07T04:09:29;10.80;99.90
51837;DHT22;38941;53.254;6.600;2023-05-07T04:11:32;10.80;99.90
51837;DHT22;38941;53.254;6.600;2023-05-07T04:13:33;10.70;99.90
51837;DHT22;38941;53.254;6.600;2023-05-07T04:15:34;10.70;99.90
51837;DHT22;38941;53.254;6.600;2023-05-07T04:17:35;10.70;99.90
51837;DHT22;38941;53.254;6.600;2023-05-07T04:19:36;10.70;99.90
51837;DHT22;38941;53.254;6.600;2023-05-07T04:21:39;10.60;99.90
51837;DHT22;38941;53.254;6.600;2023-05-07T04:23:40;10.60;99.90
51837;DHT22;38941;53.254;6.600;2023-05-07T04:25:47;10.60;99.90
51837;DHT22;38941;53.254;6.600;2023-05-07T04:27:49;10.60;99.90
51837;DHT22;38941;53.254;6.600;2023-05-07T04:29:51;10.60;99.90
51837;DHT22;38941;53.254;6.600;2023-05-07T04:31:52;10.60;99.90
51837;DHT22;38941;53.254;6.600;2023-05-07T04:33:52;10.60;99.90
51837;DHT22;38941;53.254;6.600;2023-05-07T04:35:53;10.60;99.90
51837;DHT22;38941;53.254;6.600;2023-05-07T04:37:54;10.50;99.90
51837;DHT22;38941;53.254;6.600;2023-05-07T04:39:55;10.50;99.90
51837;DHT22;38941;53.254;6.600;2023-05-07T04:41:56;10.60;99.90
51837;DHT22;38941;53.254;6.600;2023-05-07T04:43:56;10.60;99.90
51837;DHT22;38941;53.254;6.600;2023-05-07T04:45:59;10.50;99.90
51837;DHT22;38941;53.254;6.600;2023-05-07T04:48:00;10.60;99.90
51837;DHT22;38941;53.254;6.600;2023-05-07T04:50:02;10.60;99.90
51837;DHT22;38941;53.254;6.600;2023-05-07T04:52:03;10.60;99.90
51837;DHT22;38941;53.254;6.600;2023-05-07T04:54:04;10.60;99.90
51837;DHT22;38941;53.254;6.600;2023-05-07T04:56:04;10.50;99.90
51837;DHT22;38941;53.254;6.600;2023-05-07T04:58:07;10.60;99.90
51837;DHT22;38941;53.254;6.600;2023-05-07T05:00:08;10.60;99.90
51837;DHT22;38941;53.254;6.600;2023-05-07T05:02:12;10.60;99.90
51837;DHT22;38941;53.254;6.600;2023-05-07T05:04:14;10.60;99.90
51837;DHT22;38941;53.254;6.600;2023-05-07T05:06:15;10.60;99.90
51837;DHT22;38941;53.254;6.600;2023-05-07T05:08:16;10.60;99.90
51837;DHT22;38941;53.254;6.600;2023-05-07T05:10:17;10.60;99.90
51837;DHT22;38941;53.254;6.600;2023-05-07T05:12:18;10.60;99.90
51837;DHT22;38941;53.254;6.600;2023-05-07T05:14:19;10.60;99.90
51837;DHT22;38941;53.254;6.600;2023-05-07T05:16:20;10.60;99.90
51837;DHT22;38941;53.254;6.600;2023-05-07T05:18:21;10.60;99.90
51837;DHT22;38941;53.254;6.600;2023-05-07T05:20:21;10.70;99.90
51837;DHT22;38941;53.254;6.600;2023-05-07T05:22:22;10.60;99.90
51837;DHT22;38941;53.254;6.600;2023-05-07T05:24:23;10.60;99.90
51837;DHT22;38941;53.254;6.600;2023-05-07T05:26:24;10.60;99.90
51837;DHT22;38941;53.254;6.600;2023-05-07T05:28:26;10.60;99.90
51837;DHT22;38941;53.254;6.600;2023-05-07T05:30:27;10.60;99.90
51837;DHT22;38941;53.254;6.600;2023-05-07T05:32:28;10.60;99.90
51837;DHT22;38941;53.254;6.600;2023-05-07T05:34:29;10.60;99.90
51837;DHT22;38941;53.254;6.600;2023-05-07T05:36:31;10.60;99.90
51837;DHT22;38941;53.254;6.600;2023-05-07T05:38:32;10.60;99.90
51837;DHT22;38941;53.254;6.600;2023-05-07T05:40:33;10.60;99.90
51837;DHT22;38941;53.254;6.600;2023-05-07T05:42:34;10.70;99.90
51837;DHT22;38941;53.254;6.600;2023-05-07T05:44:34;10.70;99.90
51837;DHT22;38941;53.254;6.600;2023-05-07T05:46:35;10.70;99.90
51837;DHT22;38941;53.254;6.600;2023-05-07T05:48:36;10.60;99.90
51837;DHT22;38941;53.254;6.600;2023-05-07T05:50:38;10.60;99.90
51837;DHT22;38941;53.254;6.600;2023-05-07T05:52:38;10.70;99.90
51837;DHT22;38941;53.254;6.600;2023-05-07T05:54:39;10.70;99.90
51837;DHT22;38941;53.254;6.600;2023-05-07T05:56:42;10.70;99.90
51837;DHT22;38941;53.254;6.600;2023-05-07T05:58:44;10.70;99.90
51837;DHT22;38941;53.254;6.600;2023-05-07T06:00:46;10.70;99.90
51837;DHT22;38941;53.254;6.600;2023-05-07T06:02:48;10.60;99.90
51837;DHT22;38941;53.254;6.600;2023-05-07T06:04:49;10.70;99.90
51837;DHT22;38941;53.254;6.600;2023-05-07T06:06:50;10.60;99.90
51837;DHT22;38941;53.254;6.600;2023-05-07T06:08:51;10.70;99.90
51837;DHT22;38941;53.254;6.600;2023-05-07T06:10:52;10.70;99.90
51837;DHT22;38941;53.254;6.600;2023-05-07T06:12:53;10.70;99.90
51837;DHT22;38941;53.254;6.600;2023-05-07T06:14:53;10.70;99.90
51837;DHT22;38941;53.254;6.600;2023-05-07T06:16:54;10.70;99.90
51837;DHT22;38941;53.254;6.600;2023-05-07T06:18:55;10.70;99.90
51837;DHT22;38941;53.254;6.600;2023-05-07T06:20:56;10.80;99.90
51837;DHT22;38941;53.254;6.600;2023-05-07T06:22:56;10.70;99.90
51837;DHT22;38941;53.254;6.600;2023-05-07T06:24:57;10.70;99.90
51837;DHT22;38941;53.254;6.600;2023-05-07T06:26:58;10.70;99.90
51837;DHT22;38941;53.254;6.600;2023-05-07T06:28:59;10.70;99.90
51837;DHT22;38941;53.254;6.600;2023-05-07T06:31:14;10.70;99.90
51837;DHT22;38941;53.254;6.600;2023-05-07T06:33:16;10.80;99.90
51837;DHT22;38941;53.254;6.600;2023-05-07T06:35:16;10.80;99.90
51837;DHT22;38941;53.254;6.600;2023-05-07T06:37:17;10.80;99.90
51837;DHT22;38941;53.254;6.600;2023-05-07T06:39:22;10.90;99.90
51837;DHT22;38941;53.254;6.600;2023-05-07T06:41:23;10.90;99.90
51837;DHT22;38941;53.254;6.600;2023-05-07T06:43:24;10.80;99.90
51837;DHT22;38941;53.254;6.600;2023-05-07T06:45:24;10.80;99.90
51837;DHT22;38941;53.254;6.600;2023-05-07T06:47:25;10.90;99.90
51837;DHT22;38941;53.254;6.600;2023-05-07T06:49:26;10.90;99.90
51837;DHT22;38941;53.254;6.600;2023-05-07T06:51:27;10.90;99.90
51837;DHT22;38941;53.254;6.600;2023-05-07T06:53:28;10.90;99.90
51837;DHT22;38941;53.254;6.600;2023-05-07T06:55:30;10.90;99.90
51837;DHT22;38941;53.254;6.600;2023-05-07T06:57:30;11.00;99.90
51837;DHT22;38941;53.254;6.600;2023-05-07T06:59:31;11.00;99.90
51837;DHT22;38941;53.254;6.600;2023-05-07T07:01:32;11.10;99.90
51837;DHT22;38941;53.254;6.600;2023-05-07T07:03:33;11.10;99.90
51837;DHT22;38941;53.254;6.600;2023-05-07T07:05:34;11.10;99.90
51837;DHT22;38941;53.254;6.600;2023-05-07T07:07:35;11.10;99.90
51837;DHT22;38941;53.254;6.600;2023-05-07T07:09:36;11.10;99.90
51837;DHT22;38941;53.254;6.600;2023-05-07T07:11:37;11.10;99.90
51837;DHT22;38941;53.254;6.600;2023-05-07T07:13:38;11.10;99.90
51837;DHT22;38941;53.254;6.600;2023-05-07T07:15:40;11.10;99.90
51837;DHT22;38941;53.254;6.600;2023-05-07T07:17:41;11.00;99.90
51837;DHT22;38941;53.254;6.600;2023-05-07T07:19:42;11.00;99.90
51837;DHT22;38941;53.254;6.600;2023-05-07T07:21:43;11.00;99.90
51837;DHT22;38941;53.254;6.600;2023-05-07T07:23:45;11.00;99.90
51837;DHT22;38941;53.254;6.600;2023-05-07T07:25:46;11.00;99.90
51837;DHT22;38941;53.254;6.600;2023-05-07T07:27:46;11.00;99.90
51837;DHT22;38941;53.254;6.600;2023-05-07T07:29:47;10.90;99.90
51837;DHT22;38941;53.254;6.600;2023-05-07T07:31:48;10.90;99.90
51837;DHT22;38941;53.254;6.600;2023-05-07T07:33:52;10.90;99.90
51837;DHT22;38941;53.254;6.600;2023-05-07T07:35:55;10.90;99.90
51837;DHT22;38941;53.254;6.600;2023-05-07T07:37:56;10.90;99.90
51837;DHT22;38941;53.254;6.600;2023-05-07T07:39:57;11.00;99.90
51837;DHT22;38941;53.254;6.600;2023-05-07T07:41:58;11.00;99.90
51837;DHT22;38941;53.254;6.600;2023-05-07T07:43:58;11.00;99.90
51837;DHT22;38941;53.254;6.600;2023-05-07T07:45:59;11.00;99.90
51837;DHT22;38941;53.254;6.600;2023-05-07T07:48:01;11.00;99.90
51837;DHT22;38941;53.254;6.600;2023-05-07T07:50:02;11.00;99.90
51837;DHT22;38941;53.254;6.600;2023-05-07T07:52:03;11.00;99.90
51837;DHT22;38941;53.254;6.600;2023-05-07T07:54:05;11.10;99.90
51837;DHT22;38941;53.254;6.600;2023-05-07T07:56:06;11.10;99.90
51837;DHT22;38941;53.254;6.600;2023-05-07T07:58:07;11.10;99.90
51837;DHT22;38941;53.254;6.600;2023-05-07T08:00:08;11.10;99.90
51837;DHT22;38941;53.254;6.600;2023-05-07T08:02:09;11.20;99.90
51837;DHT22;38941;53.254;6.600;2023-05-07T08:14:26;11.20;99.90
51837;DHT22;38941;53.254;6.600;2023-05-07T08:16:28;10.40;99.90
51837;DHT22;38941;53.254;6.600;2023-05-07T08:18:29;11.30;99.90
51837;DHT22;38941;53.254;6.600;2023-05-07T08:20:33;11.40;99.90
51837;DHT22;38941;53.254;6.600;2023-05-07T08:22:36;11.40;99.90
51837;DHT22;38941;53.254;6.600;2023-05-07T08:24:37;11.50;99.90
51837;DHT22;38941;53.254;6.600;2023-05-07T08:26:38;11.70;99.90
51837;DHT22;38941;53.254;6.600;2023-05-07T08:28:39;11.60;99.90
51837;DHT22;38941;53.254;6.600;2023-05-07T08:30:42;11.60;99.90
51837;DHT22;38941;53.254;6.600;2023-05-07T08:32:43;11.70;99.90
51837;DHT22;38941;53.254;6.600;2023-05-07T08:34:43;11.70;99.90
51837;DHT22;38941;53.254;6.600;2023-05-07T08:36:44;11.80;99.90
51837;DHT22;38941;53.254;6.600;2023-05-07T08:38:47;11.80;99.90
51837;DHT22;38941;53.254;6.600;2023-05-07T08:40:48;11.90;99.90
51837;DHT22;38941;53.254;6.600;2023-05-07T08:42:52;11.90;99.90
51837;DHT22;38941;53.254;6.600;2023-05-07T08:44:57;11.90;99.90
51837;DHT22;38941;53.254;6.600;2023-05-07T08:47:01;11.80;99.90
51837;DHT22;38941;53.254;6.600;2023-05-07T08:49:03;12.00;99.90
51837;DHT22;38941;53.254;6.600;2023-05-07T08:51:04;12.10;99.90
51837;DHT22;38941;53.254;6.600;2023-05-07T08:53:05;12.40;99.90
51837;DHT22;38941;53.254;6.600;2023-05-07T08:55:07;12.50;99.90
51837;DHT22;38941;53.254;6.600;2023-05-07T08:57:08;12.60;99.90
51837;DHT22;38941;53.254;6.600;2023-05-07T08:59:09;12.70;99.90
51837;DHT22;38941;53.254;6.600;2023-05-07T09:01:15;12.80;99.90
51837;DHT22;38941;53.254;6.600;2023-05-07T09:03:16;12.80;99.90
51837;DHT22;38941;53.254;6.600;2023-05-07T09:05:17;12.80;99.90
51837;DHT22;38941;53.254;6.600;2023-05-07T09:07:19;12.90;99.90
51837;DHT22;38941;53.254;6.600;2023-05-07T09:09:21;12.90;99.90
51837;DHT22;38941;53.254;6.600;2023-05-07T09:11:24;13.00;99.90
51837;DHT22;38941;53.254;6.600;2023-05-07T09:13:26;13.10;99.90
51837;DHT22;38941;53.254;6.600;2023-05-07T09:15:28;13.10;99.90
51837;DHT22;38941;53.254;6.600;2023-05-07T09:17:29;13.20;99.90
51837;DHT22;38941;53.254;6.600;2023-05-07T09:19:30;13.20;99.90
51837;DHT22;38941;53.254;6.600;2023-05-07T09:21:31;13.20;99.90
51837;DHT22;38941;53.254;6.600;2023-05-07T09:23:32;13.30;99.90
51837;DHT22;38941;53.254;6.600;2023-05-07T09:25:34;13.40;99.90
51837;DHT22;38941;53.254;6.600;2023-05-07T09:27:36;13.30;99.90
51837;DHT22;38941;53.254;6.600;2023-05-07T09:29:37;13.50;99.90
51837;DHT22;38941;53.254;6.600;2023-05-07T09:31:37;13.50;99.90
51837;DHT22;38941;53.254;6.600;2023-05-07T09:33:39;13.60;99.90
51837;DHT22;38941;53.254;6.600;2023-05-07T09:35:40;13.60;99.90
51837;DHT22;38941;53.254;6.600;2023-05-07T09:37:41;13.60;99.90
51837;DHT22;38941;53.254;6.600;2023-05-07T09:39:47;13.80;99.90
51837;DHT22;38941;53.254;6.600;2023-05-07T09:41:48;13.90;99.90
51837;DHT22;38941;53.254;6.600;2023-05-07T09:43:55;14.00;99.90
51837;DHT22;38941;53.254;6.600;2023-05-07T10:04:22;14.00;99.90
51837;DHT22;38941;53.254;6.600;2023-05-07T10:06:24;14.60;99.90
51837;DHT22;38941;53.254;6.600;2023-05-07T10:08:26;14.70;99.90
51837;DHT22;38941;53.254;6.600;2023-05-07T10:10:28;14.70;99.90
51837;DHT22;38941;53.254;6.600;2023-05-07T10:12:30;14.80;99.90
51837;DHT22;38941;53.254;6.600;2023-05-07T10:14:38;14.90;99.90
51837;DHT22;38941;53.254;6.600;2023-05-07T12:00:00;15.00;99.90
51837;DHT22;38941;53.254;6.600;2023-05-07T12:02:06;18.80;99.90
51837;DHT22;38941;53.254;6.600;2023-05-07T17:22:43;18.90;99.90
51837;DHT22;38941;53.254;6.600;2023-05-07T17:24:43;20.00;99.90
51837;DHT22;38941;53.254;6.600;2023-05-07T17:26:48;19.80;99.90
51837;DHT22;38941;53.254;6.600;2023-05-07T17:28:50;19.70;99.90
51837;DHT22;38941;53.254;6.600;2023-05-07T17:30:50;19.60;99.90
51837;DHT22;38941;53.254;6.600;2023-05-07T17:32:51;19.50;99.90
51837;DHT22;38941;53.254;6.600;2023-05-07T17:36:57;19.40;99.90
51837;DHT22;38941;53.254;6.600;2023-05-07T17:39:00;19.30;99.90
51837;DHT22;38941;53.254;6.600;2023-05-07T17:41:00;19.10;99.90
51837;DHT22;38941;53.254;6.600;2023-05-07T20:19:06;19.00;99.90
51837;DHT22;38941;53.254;6.600;2023-05-07T20:21:07;15.00;99.90
51837;DHT22;38941;53.254;6.600;2023-05-07T20:23:07;14.80;99.90
